Time;durP1;ratioP1;P1;durP2;ratioP2;P2;SDS_P1;SDS_P2;PMS_P1;PMS_P2;Temp;Humidity;BMP_temperature;BMP_pressure;BME280_temperature;BME280_humidity;BME280_pressure;Samples;Min_cycle;Max_cycle;Signal;HPM_P1;HPM_P2
2022/03/13 00:01:27;;;;;;;10.3;7.5;;;;;;;5.57;49.1416;936.991;;;;
2022/03/13 00:03:52;;;;;;;10.4;7.2;;;;;;;5.64;48.75391;937.0332;;;;
2022/03/13 00:06:17;;;;;;;10.9;7.7;;;;;;;5.65;48.24707;937.0359;;;;
2022/03/13 00:08:42;;;;;;;9.9;7.5;;;;;;;5.7;48.43359;937.0972;;;;
2022/03/13 00:11:07;;;;;;;10.9;7.7;;;;;;;5.65;49.03711;937.0627;;;;
2022/03/13 00:13:32;;;;;;;11.3;7.9;;;;;;;5.6;49.47168;937.0571;;;;
2022/03/13 00:15:57;;;;;;;13.2;9.1;;;;;;;5.54;50.09668;937.0555;;;;
2022/03/13 00:18:21;;;;;;;11.7;8.4;;;;;;;5.27;50.37109;937.046;;;;
2022/03/13 00:20:46;;;;;;;13.1;8.2;;;;;;;5.09;50.86719;937.1369;;;;
2022/03/13 00:23:12;;;;;;;11.2;8;;;;;;;4.93;51.19727;937.1312;;;;
2022/03/13 00:25:37;;;;;;;11.7;8.4;;;;;;;4.98;50.9668;937.1328;;;;
2022/03/13 00:28:03;;;;;;;17.4;9;;;;;;;4.89;51.35156;937.1051;;;;
2022/03/13 00:30:27;;;;;;;12.3;8;;;;;;;4.79;52.13867;937.134;;;;
2022/03/13 00:32:52;;;;;;;11.9;8;;;;;;;4.74;51.91895;937.1895;;;;
2022/03/13 00:35:17;;;;;;;13.2;8.2;;;;;;;4.76;52.00977;937.1135;;;;
2022/03/13 00:37:42;;;;;;;11.8;8.1;;;;;;;4.74;51.63672;937.127;;;;
2022/03/13 00:40:08;;;;;;;13.1;8.2;;;;;;;4.74;52.3125;937.0861;;;;
2022/03/13 00:42:33;;;;;;;12;8.5;;;;;;;4.67;52.0791;937.0392;;;;
2022/03/13 00:44:58;;;;;;;10.7;7.5;;;;;;;4.64;52.83008;937.088;;;;
2022/03/13 00:47:23;;;;;;;12.5;8.1;;;;;;;4.44;52.97461;937.0455;;;;
2022/03/13 00:49:48;;;;;;;10.3;7.5;;;;;;;4.42;52.55469;937.03;;;;
2022/03/13 00:52:13;;;;;;;11.2;7.8;;;;;;;4.59;51.86621;936.9938;;;;
2022/03/13 00:54:38;;;;;;;9.9;7.3;;;;;;;4.69;51.86719;936.9308;;;;
2022/03/13 00:57:03;;;;;;;11.2;7.8;;;;;;;4.72;51.54395;936.9592;;;;
2022/03/13 00:59:29;;;;;;;8.9;7.2;;;;;;;4.68;51.00977;936.986;;;;
2022/03/13 01:01:53;;;;;;;10.7;7;;;;;;;4.86;50.15234;936.9817;;;;
2022/03/13 01:04:18;;;;;;;11.3;8;;;;;;;4.94;50.63477;936.9942;;;;
2022/03/13 01:06:43;;;;;;;11.4;7.5;;;;;;;4.93;49.91211;936.975;;;;
2022/03/13 01:09:09;;;;;;;9.7;7;;;;;;;4.85;49.87012;936.9146;;;;
2022/03/13 01:11:34;;;;;;;10.9;7.2;;;;;;;4.78;49.82715;936.8947;;;;
2022/03/13 01:13:59;;;;;;;10.4;6.6;;;;;;;4.88;49.54688;936.8492;;;;
2022/03/13 01:16:24;;;;;;;9.6;6.2;;;;;;;5.05;49.01367;936.8778;;;;
2022/03/13 01:18:49;;;;;;;10.1;6.6;;;;;;;5.09;49.31152;936.8284;;;;
2022/03/13 01:21:15;;;;;;;10.4;6.7;;;;;;;5.09;49.7627;936.8544;;;;
2022/03/13 01:23:40;;;;;;;11.8;7.2;;;;;;;5.03;49.50781;936.915;;;;
2022/03/13 01:26:04;;;;;;;9.9;6.8;;;;;;;4.84;49.21582;936.8448;;;;
2022/03/13 01:28:30;;;;;;;9.5;6.6;;;;;;;4.82;50.74512;936.8156;;;;
2022/03/13 01:30:55;;;;;;;9.5;6.7;;;;;;;4.89;50.87793;936.8131;;;;
2022/03/13 01:33:20;;;;;;;9.5;6.5;;;;;;;4.84;50.54492;936.7162;;;;
2022/03/13 01:35:45;;;;;;;10.7;6.5;;;;;;;4.53;51.25;936.8422;;;;
2022/03/13 01:38:11;;;;;;;11.7;6.6;;;;;;;4.47;50.88379;936.7791;;;;
2022/03/13 01:40:35;;;;;;;8.9;6;;;;;;;4.3;51.61621;936.8225;;;;
2022/03/13 01:43:01;;;;;;;13.5;6.7;;;;;;;4.38;50.70313;936.7847;;;;
2022/03/13 01:45:26;;;;;;;9.1;6.2;;;;;;;4.5;50.76367;936.6885;;;;
2022/03/13 01:47:51;;;;;;;9.5;6.7;;;;;;;4.62;50.31543;936.7491;;;;
2022/03/13 01:50:16;;;;;;;12.9;6.6;;;;;;;4.64;49.8457;936.6819;;;;
2022/03/13 01:52:41;;;;;;;9.7;6.6;;;;;;;4.49;50.12109;936.7725;;;;
2022/03/13 01:55:06;;;;;;;10.4;6.8;;;;;;;4.48;49.93848;936.7706;;;;
2022/03/13 01:57:32;;;;;;;11.1;6.8;;;;;;;4.47;50.0957;936.7704;;;;
2022/03/13 01:59:56;;;;;;;10.3;7.2;;;;;;;4.37;50.70215;936.6756;;;;
2022/03/13 02:02:25;;;;;;;9.6;7.4;;;;;;;4.28;51.16406;936.6722;;;;
2022/03/13 02:04:47;;;;;;;8.8;6.4;;;;;;;4.29;50.2207;936.6646;;;;
2022/03/13 02:07:12;;;;;;;10.4;6.4;;;;;;;4.45;50.35156;936.6911;;;;
2022/03/13 02:09:37;;;;;;;9.1;6.2;;;;;;;4.53;50.06836;936.6942;;;;
2022/03/13 02:12:02;;;;;;;8.6;6.2;;;;;;;4.58;49.78223;936.6666;;;;
2022/03/13 02:14:27;;;;;;;9.6;6.1;;;;;;;4.8;48.51172;936.598;;;;
2022/03/13 02:16:52;;;;;;;8.4;6.1;;;;;;;4.99;47.91309;936.6233;;;;
2022/03/13 02:19:18;;;;;;;9.2;6.2;;;;;;;5.32;46.37109;936.6208;;;;
2022/03/13 02:21:44;;;;;;;9.7;6.2;;;;;;;5.36;47.13184;936.5533;;;;
2022/03/13 02:24:07;;;;;;;9.4;6.7;;;;;;;5.25;47.83008;936.5401;;;;
2022/03/13 02:26:33;;;;;;;8.7;6.4;;;;;;;5.13;48.01953;936.6275;;;;
2022/03/13 02:28:58;;;;;;;9.2;6.4;;;;;;;5.03;48.48242;936.5925;;;;
2022/03/13 02:31:23;;;;;;;9.1;6.5;;;;;;;4.95;48.7998;936.6105;;;;
2022/03/13 02:33:48;;;;;;;9.1;6.5;;;;;;;4.83;48.55957;936.4824;;;;
2022/03/13 02:36:13;;;;;;;8.9;6.4;;;;;;;4.82;49.09961;936.4892;;;;
2022/03/13 02:38:38;;;;;;;9.5;6.4;;;;;;;4.51;50.16699;936.3922;;;;
2022/03/13 02:41:03;;;;;;;9.4;6.5;;;;;;;4.19;51.35547;936.5508;;;;
2022/03/13 02:43:28;;;;;;;10.9;6.6;;;;;;;4.22;51.18066;936.5207;;;;
2022/03/13 02:45:54;;;;;;;9.8;6.8;;;;;;;4.13;51.00098;936.4222;;;;
2022/03/13 02:48:18;;;;;;;7.5;5.8;;;;;;;4.27;50.61133;936.4852;;;;
2022/03/13 02:50:44;;;;;;;10.2;6.9;;;;;;;4.32;50.31445;936.5332;;;;
2022/03/13 02:53:09;;;;;;;9.2;6.5;;;;;;;4.34;50.45117;936.4611;;;;
2022/03/13 02:55:34;;;;;;;12.9;7.7;;;;;;;4.38;50.13086;936.535;;;;
2022/03/13 02:57:59;;;;;;;11;7.2;;;;;;;4.31;50.77441;936.469;;;;
2022/03/13 03:00:24;;;;;;;10.2;6.7;;;;;;;4.28;50.56738;936.4767;;;;
2022/03/13 03:02:49;;;;;;;8.8;6.3;;;;;;;4.17;50.9707;936.4384;;;;
2022/03/13 03:05:14;;;;;;;8.7;6.4;;;;;;;3.9;51.89551;936.4608;;;;
2022/03/13 03:07:40;;;;;;;8.8;6.6;;;;;;;3.83;52.21289;936.4372;;;;
2022/03/13 03:10:05;;;;;;;11;6.7;;;;;;;3.56;52.80762;936.4272;;;;
2022/03/13 03:12:30;;;;;;;8.2;6;;;;;;;3.51;53.27344;936.3531;;;;
2022/03/13 03:14:55;;;;;;;9.7;6.8;;;;;;;3.28;53.85059;936.3862;;;;
2022/03/13 03:17:20;;;;;;;9.2;6.5;;;;;;;3.36;53.6709;936.3056;;;;
2022/03/13 03:19:45;;;;;;;8.9;6.2;;;;;;;3.29;53.68457;936.3488;;;;
2022/03/13 03:22:10;;;;;;;9.1;6.3;;;;;;;3.39;53.11328;936.3625;;;;
2022/03/13 03:24:36;;;;;;;9;6.1;;;;;;;3.49;52.73242;936.347;;;;
2022/03/13 03:27:01;;;;;;;15.8;7.5;;;;;;;3.52;54.57715;936.2851;;;;
2022/03/13 03:29:26;;;;;;;9.3;6;;;;;;;3.45;53.47949;936.3338;;;;
2022/03/13 03:31:51;;;;;;;8.8;6.1;;;;;;;3.31;53.65234;936.3652;;;;
2022/03/13 03:34:16;;;;;;;8.2;6.4;;;;;;;3.3;53.11328;936.4012;;;;
2022/03/13 03:36:42;;;;;;;9.2;6.4;;;;;;;3.26;53.37793;936.355;;;;
2022/03/13 03:39:06;;;;;;;11.2;6.1;;;;;;;3.4;52.92285;936.3571;;;;
2022/03/13 03:41:31;;;;;;;8.6;5.6;;;;;;;3.4;52.83301;936.3351;;;;
2022/03/13 03:43:57;;;;;;;9.4;6.3;;;;;;;3.4;53.28223;936.3714;;;;
2022/03/13 03:46:24;;;;;;;10;6.4;;;;;;;3.37;52.91992;936.3742;;;;
2022/03/13 03:48:47;;;;;;;8.8;5.5;;;;;;;3.39;53.14551;936.3787;;;;
2022/03/13 03:51:12;;;;;;;9.3;5.8;;;;;;;3.43;52.9375;936.3489;;;;
2022/03/13 03:53:37;;;;;;;8.6;6.5;;;;;;;3.12;53.47168;936.3562;;;;
2022/03/13 03:56:03;;;;;;;7.8;6;;;;;;;3.06;53.7793;936.3511;;;;
2022/03/13 03:58:28;;;;;;;9.8;5.8;;;;;;;3.06;53.27441;936.3747;;;;
2022/03/13 04:02:31;;;;;;;8.5;6.2;;;;;;;3.05;54.32617;936.3162;;;;
2022/03/13 04:04:56;;;;;;;8.4;6.2;;;;;;;3.12;54.69531;936.3239;;;;
2022/03/13 04:07:21;;;;;;;10.4;5.9;;;;;;;3.19;53.07715;936.4112;;;;
2022/03/13 04:09:46;;;;;;;9.2;5.8;;;;;;;3.24;53.18359;936.4163;;;;
2022/03/13 04:12:11;;;;;;;7.9;5.8;;;;;;;3.18;53.06445;936.4355;;;;
2022/03/13 04:14:36;;;;;;;8.2;5.7;;;;;;;3.17;52.83887;936.52;;;;
2022/03/13 04:17:01;;;;;;;8.2;5.7;;;;;;;3.29;52.4707;936.5352;;;;
2022/03/13 04:19:28;;;;;;;8;5.5;;;;;;;3.61;50.71289;936.5747;;;;
2022/03/13 04:21:52;;;;;;;8.5;6;;;;;;;3.87;49.6875;936.6505;;;;
2022/03/13 04:24:17;;;;;;;8.5;6.1;;;;;;;3.92;49.89648;936.5513;;;;
2022/03/13 04:26:42;;;;;;;9.6;5.5;;;;;;;3.98;49.82422;936.5514;;;;
2022/03/13 04:29:09;;;;;;;9.9;6;;;;;;;4.02;49.08594;936.6174;;;;
2022/03/13 04:31:32;;;;;;;7.6;5.5;;;;;;;4.1;49.61328;936.6066;;;;
2022/03/13 04:33:57;;;;;;;7.5;5.5;;;;;;;3.71;50.86035;936.5834;;;;
2022/03/13 04:36:23;;;;;;;7.9;5.2;;;;;;;3.58;50.99121;936.7083;;;;
2022/03/13 04:38:47;;;;;;;8;5.7;;;;;;;3.63;50.30078;936.5779;;;;
2022/03/13 04:41:12;;;;;;;8;5.5;;;;;;;3.79;50.57715;936.6269;;;;
2022/03/13 04:43:38;;;;;;;8.8;6;;;;;;;3.9;50.56738;936.6599;;;;
2022/03/13 04:46:02;;;;;;;8.1;6.4;;;;;;;3.77;50.38379;936.7578;;;;
2022/03/13 04:48:28;;;;;;;7.9;6;;;;;;;3.81;50.42285;936.7942;;;;
2022/03/13 04:50:53;;;;;;;9;6;;;;;;;3.95;49.62988;936.7867;;;;
2022/03/13 04:53:18;;;;;;;9.1;5.5;;;;;;;3.99;49.21777;936.7462;;;;
2022/03/13 04:55:43;;;;;;;8;5.4;;;;;;;3.98;49.05957;936.7726;;;;
2022/03/13 04:58:08;;;;;;;7.5;5.4;;;;;;;4.03;48.9082;936.8391;;;;
2022/03/13 05:00:34;;;;;;;8;5.8;;;;;;;4;49.68066;936.7592;;;;
2022/03/13 05:02:59;;;;;;;8.8;5.4;;;;;;;3.96;48.5293;936.8219;;;;
2022/03/13 05:05:24;;;;;;;8.5;5.6;;;;;;;4.04;49.14551;936.9089;;;;
2022/03/13 05:07:49;;;;;;;7.9;5.7;;;;;;;4.18;48.2168;936.8856;;;;
2022/03/13 05:10:15;;;;;;;7.7;5.5;;;;;;;4.22;48.31055;936.8988;;;;
2022/03/13 05:12:39;;;;;;;8.7;5.2;;;;;;;4.22;48.2666;936.9423;;;;
2022/03/13 05:15:04;;;;;;;8.5;5.2;;;;;;;4.22;47.80469;936.9061;;;;
2022/03/13 05:17:29;;;;;;;8.1;5.7;;;;;;;4.09;50.02832;936.9395;;;;
2022/03/13 05:19:55;;;;;;;8.3;5.7;;;;;;;4.07;49.95801;936.9847;;;;
2022/03/13 05:22:19;;;;;;;10;6.3;;;;;;;3.86;50.00098;936.9468;;;;
2022/03/13 05:24:44;;;;;;;9.2;6;;;;;;;3.72;50.79492;937.0572;;;;
2022/03/13 05:27:09;;;;;;;9.5;6.4;;;;;;;3.58;51.7207;937.0719;;;;
2022/03/13 05:29:35;;;;;;;10.4;6.8;;;;;;;3.51;51.86914;937.16;;;;
2022/03/13 05:32:00;;;;;;;10.6;7;;;;;;;3.44;52.34375;937.2033;;;;
2022/03/13 05:34:25;;;;;;;12.3;6.8;;;;;;;3.41;52.48633;937.1685;;;;
2022/03/13 05:36:50;;;;;;;12.2;7.4;;;;;;;3.27;52.37988;937.1838;;;;
2022/03/13 05:39:15;;;;;;;11.7;7.5;;;;;;;3.23;52.23926;937.158;;;;
2022/03/13 05:41:42;;;;;;;12.5;7.9;;;;;;;3.2;52.4043;937.1495;;;;
2022/03/13 05:44:05;;;;;;;12.1;7.3;;;;;;;3.16;52.63574;937.1522;;;;
2022/03/13 05:46:30;;;;;;;12.8;7.9;;;;;;;3.2;52.99902;937.2573;;;;
2022/03/13 05:48:56;;;;;;;27.3;17.1;;;;;;;3.04;53.6084;937.2401;;;;
2022/03/13 05:51:21;;;;;;;20.5;12.5;;;;;;;2.89;53.95898;937.3176;;;;
2022/03/13 05:53:46;;;;;;;10.9;7.7;;;;;;;2.77;54.53711;937.3797;;;;
2022/03/13 05:56:11;;;;;;;10.1;6;;;;;;;2.83;54.56934;937.3918;;;;
2022/03/13 05:58:36;;;;;;;9;5.9;;;;;;;2.86;53.69727;937.4092;;;;
2022/03/13 06:01:11;;;;;;;10.5;6.1;;;;;;;2.92;52.58203;937.3649;;;;
2022/03/13 06:03:26;;;;;;;8.4;5.7;;;;;;;3.07;52.3877;937.3456;;;;
2022/03/13 06:05:51;;;;;;;9;5.8;;;;;;;3.2;55.30078;937.3936;;;;
2022/03/13 06:08:17;;;;;;;9.5;6.2;;;;;;;3.36;54.14258;937.4207;;;;
2022/03/13 06:10:42;;;;;;;16.8;7.2;;;;;;;3.47;52.33691;937.4483;;;;
2022/03/13 06:13:07;;;;;;;10.3;6.3;;;;;;;3.76;51.78809;937.3923;;;;
2022/03/13 06:15:32;;;;;;;8.6;5.8;;;;;;;4.79;49.20898;937.4093;;;;
2022/03/13 06:17:58;;;;;;;9.4;5.5;;;;;;;5.95;46.12402;937.4061;;;;
2022/03/13 06:20:22;;;;;;;9.2;5.5;;;;;;;7.02;43.39648;937.4047;;;;
2022/03/13 06:22:47;;;;;;;7.8;5.4;;;;;;;7.72;40.59668;937.2728;;;;
2022/03/13 06:25:13;;;;;;;8;5.7;;;;;;;7.82;40.92383;937.2789;;;;
2022/03/13 06:27:38;;;;;;;10.1;6;;;;;;;7.72;40.92578;937.3441;;;;
2022/03/13 06:30:09;;;;;;;10.9;6.3;;;;;;;8.78;38.66211;937.3119;;;;
2022/03/13 06:32:28;;;;;;;8;5.8;;;;;;;9.33;37.52734;937.3279;;;;
2022/03/13 06:34:53;;;;;;;11.8;6.2;;;;;;;9.28;37.4209;937.4069;;;;
2022/03/13 06:37:18;;;;;;;8.6;6.5;;;;;;;9.38;37.21289;937.4263;;;;
2022/03/13 06:39:43;;;;;;;13.2;8.3;;;;;;;8.45;39.21191;937.4517;;;;
2022/03/13 06:42:09;;;;;;;15.3;7.6;;;;;;;8.08;41.08594;937.3306;;;;
2022/03/13 06:44:34;;;;;;;18.1;9.6;;;;;;;7.57;42.03613;937.3935;;;;
2022/03/13 06:46:59;;;;;;;19.4;10.9;;;;;;;7.9;41.375;937.3731;;;;
2022/03/13 06:49:25;;;;;;;12.9;8.3;;;;;;;8.15;39.46777;937.338;;;;
2022/03/13 06:51:49;;;;;;;10.9;7.6;;;;;;;8.3;38.8916;937.356;;;;
2022/03/13 06:54:15;;;;;;;14;7.9;;;;;;;8.76;38.33105;937.3616;;;;
2022/03/13 06:56:40;;;;;;;9;6.5;;;;;;;8.28;38.24316;937.3914;;;;
2022/03/13 06:59:05;;;;;;;12.1;7.9;;;;;;;8.25;39.05762;937.3178;;;;
2022/03/13 07:01:30;;;;;;;11;7.7;;;;;;;8.6;37.46387;937.3073;;;;
2022/03/13 07:03:55;;;;;;;10.5;7.4;;;;;;;8.73;37.22461;937.3175;;;;
2022/03/13 07:06:20;;;;;;;9.9;7;;;;;;;9.25;36.2793;937.342;;;;
2022/03/13 07:08:45;;;;;;;11.9;7.5;;;;;;;10.71;34.16309;937.3231;;;;
2022/03/13 07:11:10;;;;;;;9.3;6;;;;;;;11.22;33.23145;937.2586;;;;
2022/03/13 07:13:36;;;;;;;9;6.1;;;;;;;11.33;32.05078;937.2265;;;;
2022/03/13 07:16:01;;;;;;;8.1;5.9;;;;;;;11.2;32.18945;937.1848;;;;
2022/03/13 07:18:26;;;;;;;9.2;6.2;;;;;;;10.77;32.86621;937.1881;;;;
2022/03/13 07:20:51;;;;;;;7.5;5.6;;;;;;;11.37;32.86621;937.1088;;;;
2022/03/13 07:23:16;;;;;;;8.6;5.8;;;;;;;12.12;30.61914;937.0851;;;;
2022/03/13 07:25:41;;;;;;;7.8;5.6;;;;;;;12.41;30.54785;937.0538;;;;
2022/03/13 07:28:07;;;;;;;8.4;5.5;;;;;;;11.19;31.19434;937.106;;;;
2022/03/13 07:30:32;;;;;;;7.7;5.8;;;;;;;10.97;32.89258;937.1714;;;;
2022/03/13 07:32:56;;;;;;;7.6;5.5;;;;;;;11.39;32.73047;937.1566;;;;
2022/03/13 07:35:22;;;;;;;8.7;6;;;;;;;12.61;31.56055;937.1183;;;;
2022/03/13 07:37:47;;;;;;;7.9;5.6;;;;;;;12.2;30.17871;937.1356;;;;
2022/03/13 07:40:12;;;;;;;9.6;5.7;;;;;;;12.49;28.69629;937.1364;;;;
2022/03/13 07:42:37;;;;;;;8.7;5.8;;;;;;;13.5;28.15332;937.1203;;;;
2022/03/13 07:45:02;;;;;;;8;5.8;;;;;;;14.11;28.42285;937.0214;;;;
2022/03/13 07:47:30;;;;;;;8.6;5.5;;;;;;;14.33;27.63086;937.0538;;;;
2022/03/13 07:49:53;;;;;;;8.2;5.5;;;;;;;13.82;27.08105;937.0563;;;;
2022/03/13 07:52:18;;;;;;;7.4;5.6;;;;;;;14.37;26.82715;937.0303;;;;
2022/03/13 07:54:43;;;;;;;8.5;5.7;;;;;;;15.22;26.86816;937.0053;;;;
2022/03/13 07:57:08;;;;;;;6.5;4.9;;;;;;;14.39;26.30957;936.9453;;;;
2022/03/13 07:59:33;;;;;;;6.8;5.2;;;;;;;13.57;28.08887;936.9769;;;;
2022/03/13 08:01:58;;;;;;;6.2;4.9;;;;;;;14.37;26.33203;936.9269;;;;
2022/03/13 08:04:24;;;;;;;8.8;5.7;;;;;;;15.35;24.2666;936.9542;;;;
2022/03/13 08:06:49;;;;;;;7;5.1;;;;;;;17.49;22.56348;936.8814;;;;
2022/03/13 08:09:13;;;;;;;6.2;4.6;;;;;;;17.03;23.60645;936.8909;;;;
2022/03/13 08:11:39;;;;;;;6.6;5.1;;;;;;;17.76;22.80957;936.8895;;;;
2022/03/13 08:14:04;;;;;;;8.1;5.4;;;;;;;18.66;21.35645;936.8036;;;;
2022/03/13 08:16:29;;;;;;;6.5;4.6;;;;;;;18.28;21.30273;936.8727;;;;
2022/03/13 08:18:54;;;;;;;10.6;5.2;;;;;;;17.64;20.50586;936.8353;;;;
2022/03/13 08:21:19;;;;;;;6.3;5.1;;;;;;;18;19.73242;936.8663;;;;
2022/03/13 08:23:44;;;;;;;6.9;5.1;;;;;;;19.19;19.2627;936.761;;;;
2022/03/13 08:26:11;;;;;;;6.8;5.2;;;;;;;18.85;19.46875;936.7057;;;;
2022/03/13 08:28:35;;;;;;;6.9;5;;;;;;;20.18;18.34863;936.7244;;;;
2022/03/13 08:31:00;;;;;;;6.9;5.3;;;;;;;17.98;19.05859;936.7732;;;;
2022/03/13 08:33:25;;;;;;;6.7;4.9;;;;;;;16.91;20.70313;936.7914;;;;
2022/03/13 08:35:50;;;;;;;7;4.9;;;;;;;17.59;19.76074;936.7859;;;;
2022/03/13 08:38:16;;;;;;;6.3;5;;;;;;;18.05;20.50195;936.7349;;;;
2022/03/13 08:40:40;;;;;;;5.3;4.4;;;;;;;19.87;19.47949;936.6912;;;;
2022/03/13 08:43:14;;;;;;;7.9;4.6;;;;;;;20.76;18.05664;936.6808;;;;
2022/03/13 08:45:32;;;;;;;5.9;4.5;;;;;;;23.37;15.88281;936.7209;;;;
2022/03/13 08:47:57;;;;;;;6;4.2;;;;;;;22.75;16.03711;936.6909;;;;
2022/03/13 08:50:24;;;;;;;5.9;4.5;;;;;;;21.08;16.86523;936.7399;;;;
2022/03/13 08:52:47;;;;;;;4.7;3.8;;;;;;;20.8;18.19922;936.733;;;;
2022/03/13 08:55:15;;;;;;;5.4;4.1;;;;;;;20.76;17.56543;936.6898;;;;
2022/03/13 08:57:38;;;;;;;5.4;4.4;;;;;;;19.65;17.7666;936.7247;;;;
2022/03/13 09:00:03;;;;;;;6;4;;;;;;;21.08;17.59082;936.662;;;;
2022/03/13 09:02:28;;;;;;;7.3;4.8;;;;;;;19.35;18.0459;936.6482;;;;
2022/03/13 09:04:53;;;;;;;6.6;4.7;;;;;;;18.8;18.31445;936.6453;;;;
2022/03/13 09:07:18;;;;;;;7.9;4.6;;;;;;;18.16;19.04297;936.6526;;;;
2022/03/13 09:09:44;;;;;;;15.3;5.1;;;;;;;18.94;18.7627;936.6234;;;;
2022/03/13 09:12:09;;;;;;;5.1;3.8;;;;;;;19.18;17.6543;936.5595;;;;
2022/03/13 09:14:34;;;;;;;5.3;3.9;;;;;;;21.58;16.42773;936.5283;;;;
2022/03/13 09:16:59;;;;;;;6.6;3.9;;;;;;;22.25;16.31152;936.5972;;;;
2022/03/13 09:19:24;;;;;;;5.2;4.2;;;;;;;21.91;15.94824;936.5653;;;;
2022/03/13 09:21:49;;;;;;;5;3.7;;;;;;;20.78;16.22266;936.5039;;;;
2022/03/13 09:24:14;;;;;;;4.5;3.5;;;;;;;21.01;16.78027;936.4827;;;;
2022/03/13 09:26:40;;;;;;;4.9;3.5;;;;;;;22.8;15.80371;936.4096;;;;
2022/03/13 09:29:04;;;;;;;4.4;3.3;;;;;;;21.59;15.45605;936.449;;;;
2022/03/13 09:31:29;;;;;;;3.9;3.1;;;;;;;21.75;15.61426;936.4266;;;;
2022/03/13 09:33:54;;;;;;;5.4;3.4;;;;;;;20.21;16.65723;936.447;;;;
2022/03/13 09:36:20;;;;;;;6;3.5;;;;;;;20.55;16.80957;936.4664;;;;
2022/03/13 09:38:45;;;;;;;4.4;3.5;;;;;;;19.51;17.03809;936.4387;;;;
2022/03/13 09:41:10;;;;;;;5.8;3.5;;;;;;;18.76;17.83594;936.4286;;;;
2022/03/13 09:43:35;;;;;;;4.5;3.4;;;;;;;19.49;17.00293;936.4055;;;;
2022/03/13 09:46:00;;;;;;;5.2;3.6;;;;;;;21.07;16.77148;936.382;;;;
2022/03/13 09:48:25;;;;;;;5.3;3.5;;;;;;;19.44;17.29297;936.3293;;;;
2022/03/13 09:50:50;;;;;;;6;4;;;;;;;19.71;17.78027;936.2497;;;;
2022/03/13 09:53:16;;;;;;;4.3;3.3;;;;;;;20.71;17.48242;936.2511;;;;
2022/03/13 09:55:41;;;;;;;4.6;3.5;;;;;;;20.04;17.07031;936.2064;;;;
2022/03/13 09:58:06;;;;;;;4.7;3.5;;;;;;;19.41;17.9668;936.2202;;;;
2022/03/13 10:00:31;;;;;;;5.9;3.3;;;;;;;19.63;17.31152;936.1794;;;;
2022/03/13 10:02:56;;;;;;;4.8;3.5;;;;;;;18.68;17.61133;936.2093;;;;
2022/03/13 10:05:22;;;;;;;5.1;3.4;;;;;;;18.52;18.80273;936.2007;;;;
2022/03/13 10:07:46;;;;;;;7.1;3.7;;;;;;;18.91;17.92383;936.1853;;;;
2022/03/13 10:10:11;;;;;;;4.9;3.5;;;;;;;19.28;17.70508;936.1331;;;;
2022/03/13 10:12:36;;;;;;;5.4;3.9;;;;;;;18.52;17.86035;936.0773;;;;
2022/03/13 10:15:03;;;;;;;6.7;3.3;;;;;;;19.29;18.17188;936.0715;;;;
2022/03/13 10:17:27;;;;;;;3.6;3;;;;;;;20.48;17.0293;935.9889;;;;
2022/03/13 10:19:52;;;;;;;4.7;2.9;;;;;;;20.04;15.77539;935.9988;;;;
2022/03/13 10:22:17;;;;;;;3.6;2.9;;;;;;;19.71;16.26465;935.9231;;;;
2022/03/13 10:24:42;;;;;;;3.1;2.6;;;;;;;19.74;17.58398;935.8777;;;;
2022/03/13 10:27:07;;;;;;;3.7;2.8;;;;;;;20.79;15.91895;935.8641;;;;
2022/03/13 10:29:32;;;;;;;4;2.7;;;;;;;20.78;15.67285;935.8452;;;;
2022/03/13 10:31:58;;;;;;;4.9;3;;;;;;;20.67;16.58105;935.8106;;;;
2022/03/13 10:34:23;;;;;;;3.7;2.9;;;;;;;21.76;15.36816;935.7906;;;;
2022/03/13 10:36:48;;;;;;;3.8;2.9;;;;;;;21.67;15.91602;935.748;;;;
2022/03/13 10:39:13;;;;;;;3;2.5;;;;;;;21.32;15.43457;935.6916;;;;
2022/03/13 10:41:44;;;;;;;4.1;2.9;;;;;;;20.07;16.18457;935.7352;;;;
2022/03/13 10:44:05;;;;;;;3.1;2.7;;;;;;;20.64;16.25293;935.6959;;;;
2022/03/13 10:46:28;;;;;;;4.5;2.8;;;;;;;22.43;15.5791;935.5956;;;;
2022/03/13 10:48:54;;;;;;;6.1;3.2;;;;;;;22.81;17.7998;935.5966;;;;
2022/03/13 10:51:18;;;;;;;3.4;2.6;;;;;;;22.5;15.89844;935.541;;;;
2022/03/13 10:53:44;;;;;;;5.1;2.9;;;;;;;22.77;15.87305;935.5561;;;;
2022/03/13 10:56:09;;;;;;;3.4;2.6;;;;;;;22.25;16.32324;935.4705;;;;
2022/03/13 10:58:35;;;;;;;4.1;2.7;;;;;;;21.81;16.98633;935.5012;;;;
2022/03/13 11:00:59;;;;;;;3.3;2.3;;;;;;;21.73;16.04688;935.4548;;;;
2022/03/13 11:03:26;;;;;;;3;2.3;;;;;;;22.28;16.19531;935.4191;;;;
2022/03/13 11:05:49;;;;;;;5.9;2.9;;;;;;;23.61;15.71484;935.3709;;;;
2022/03/13 11:08:14;;;;;;;3.9;2.5;;;;;;;24.16;14.35645;935.3772;;;;
2022/03/13 11:10:39;;;;;;;2;1.8;;;;;;;23.77;14.34375;935.3759;;;;
2022/03/13 11:13:05;;;;;;;3.1;2;;;;;;;23.71;14.33008;935.3689;;;;
2022/03/13 11:15:31;;;;;;;2.6;2.1;;;;;;;23.87;13.6875;935.3083;;;;
2022/03/13 11:17:55;;;;;;;4.2;2.2;;;;;;;24.01;13.69238;935.2983;;;;
2022/03/13 11:20:20;;;;;;;2.6;2;;;;;;;24.06;12.64551;935.2328;;;;
2022/03/13 11:22:45;;;;;;;8.1;3;;;;;;;23.94;14.00781;935.1813;;;;
2022/03/13 11:25:11;;;;;;;2.5;2;;;;;;;23.08;13.20508;935.2065;;;;
2022/03/13 11:27:36;;;;;;;4.3;2.2;;;;;;;24.7;13.00586;935.1541;;;;
2022/03/13 11:30:01;;;;;;;7;2.3;;;;;;;26.58;12.68164;935.1166;;;;
2022/03/13 11:32:26;;;;;;;8.1;2;;;;;;;27.43;12.49219;935.0814;;;;
2022/03/13 11:34:51;;;;;;;2;1.8;;;;;;;28.11;11.28711;935.0668;;;;
2022/03/13 11:37:16;;;;;;;2.9;2.3;;;;;;;28.17;11.84668;935.0455;;;;
2022/03/13 11:39:41;;;;;;;2.7;2.3;;;;;;;27.03;11.42578;935.0013;;;;
2022/03/13 11:42:07;;;;;;;3.7;2.5;;;;;;;26.12;12.27832;935.0378;;;;
2022/03/13 11:44:33;;;;;;;2.9;2.3;;;;;;;25.75;12.35059;934.995;;;;
2022/03/13 11:46:57;;;;;;;3.8;2.3;;;;;;;26.35;12.86426;934.984;;;;
2022/03/13 11:49:22;;;;;;;2.9;2.5;;;;;;;27.61;11.79688;934.8967;;;;
2022/03/13 11:51:47;;;;;;;3.8;2.4;;;;;;;29.58;11.00195;934.8909;;;;
2022/03/13 11:54:15;;;;;;;5.7;2.3;;;;;;;30.68;10.18066;934.8284;;;;
2022/03/13 11:56:38;;;;;;;8.6;2.2;;;;;;;31.17;9.880859;934.8418;;;;
2022/03/13 11:59:03;;;;;;;3.6;2.7;;;;;;;31.64;9.567383;934.7192;;;;
2022/03/13 12:01:28;;;;;;;2.2;2;;;;;;;29.37;10.47266;934.6774;;;;
2022/03/13 12:03:53;;;;;;;2.8;2.5;;;;;;;28.51;11.11816;934.7363;;;;
2022/03/13 12:06:18;;;;;;;2.7;2.3;;;;;;;30.02;10.77441;934.6463;;;;
2022/03/13 12:08:43;;;;;;;3.3;2.3;;;;;;;32.11;9.074219;934.6052;;;;
2022/03/13 12:11:09;;;;;;;2.9;2.1;;;;;;;33.19;9.071289;934.6219;;;;
2022/03/13 12:13:34;;;;;;;2.8;2.4;;;;;;;30.55;9.484375;934.5927;;;;
2022/03/13 12:15:59;;;;;;;2.9;2.4;;;;;;;29.13;10.66992;934.5898;;;;
2022/03/13 12:18:27;;;;;;;3.1;2.1;;;;;;;30.02;9.78418;934.4998;;;;
2022/03/13 12:20:49;;;;;;;4.4;2.4;;;;;;;30.82;10.90137;934.4702;;;;
2022/03/13 12:23:14;;;;;;;2.7;2.2;;;;;;;29.38;10.74707;934.4403;;;;
2022/03/13 12:25:39;;;;;;;1.7;1.6;;;;;;;29.12;11.00293;934.4869;;;;
2022/03/13 12:28:05;;;;;;;2.1;1.9;;;;;;;30.34;10.56738;934.4533;;;;
2022/03/13 12:30:30;;;;;;;2.6;2;;;;;;;32.49;9.285156;934.4562;;;;
2022/03/13 12:32:55;;;;;;;2.6;2.1;;;;;;;30.55;9.604492;934.4026;;;;
2022/03/13 12:35:20;;;;;;;2.9;2.3;;;;;;;30.98;9.756836;934.3657;;;;
2022/03/13 12:37:45;;;;;;;2.1;1.9;;;;;;;30.84;9.5625;934.34;;;;
2022/03/13 12:40:10;;;;;;;2.1;1.9;;;;;;;31.65;9.496094;934.3025;;;;
2022/03/13 12:42:37;;;;;;;2.3;2.1;;;;;;;32.01;9.850586;934.3053;;;;
2022/03/13 12:45:03;;;;;;;2.7;2.2;;;;;;;34.54;8.085938;934.3244;;;;
2022/03/13 12:47:26;;;;;;;2.5;2.1;;;;;;;34.52;8.711914;934.2864;;;;
2022/03/13 12:49:51;;;;;;;1.8;1.7;;;;;;;34.45;8.518555;934.2554;;;;
2022/03/13 12:52:16;;;;;;;2.2;2;;;;;;;35.38;8.040039;934.2451;;;;
2022/03/13 12:54:42;;;;;;;2.5;2.1;;;;;;;35.31;7.930664;934.2605;;;;
2022/03/13 12:57:08;;;;;;;2.7;2.1;;;;;;;33.15;8.541992;934.2875;;;;
2022/03/13 12:59:32;;;;;;;2.4;2;;;;;;;34.84;7.862305;934.2161;;;;
2022/03/13 13:01:57;;;;;;;3.6;2.3;;;;;;;33.93;7.930664;934.2108;;;;
2022/03/13 13:04:22;;;;;;;2.8;2.2;;;;;;;34.52;8.145508;934.1937;;;;
2022/03/13 13:06:53;;;;;;;2.5;2.3;;;;;;;34.26;9.30957;934.1763;;;;
2022/03/13 13:09:18;;;;;;;3.4;1.9;;;;;;;31.74;8.838867;934.2115;;;;
2022/03/13 13:11:43;;;;;;;3.1;2;;;;;;;31.47;8.797852;934.152;;;;
2022/03/13 13:14:08;;;;;;;3;2.2;;;;;;;32.72;8.833984;934.1411;;;;
2022/03/13 13:16:34;;;;;;;3;1.8;;;;;;;33.73;8.661133;934.1567;;;;
2022/03/13 13:18:59;;;;;;;2.2;2;;;;;;;35.02;7.853516;934.1202;;;;
2022/03/13 13:21:24;;;;;;;4.7;2.2;;;;;;;35;8.19043;934.0769;;;;
2022/03/13 13:23:49;;;;;;;2.9;2.2;;;;;;;34.92;8.50293;934.0332;;;;
2022/03/13 13:26:14;;;;;;;2.9;2.3;;;;;;;34.05;8.919922;934.0095;;;;
2022/03/13 13:28:39;;;;;;;2.4;1.9;;;;;;;31.45;9.491211;934.0129;;;;
2022/03/13 13:31:04;;;;;;;3.4;2.1;;;;;;;32.55;9.166992;934.0641;;;;
2022/03/13 13:33:29;;;;;;;4.5;2.2;;;;;;;31.78;9.738281;933.981;;;;
2022/03/13 13:35:54;;;;;;;3;2.6;;;;;;;28.93;10.25977;934.0053;;;;
2022/03/13 13:38:20;;;;;;;2.8;2.3;;;;;;;30.78;10.27832;934.0407;;;;
2022/03/13 13:40:44;;;;;;;2.8;2.2;;;;;;;31.09;9.125;934.0339;;;;
2022/03/13 13:43:11;;;;;;;1.9;1.8;;;;;;;29.93;9.663086;934.0045;;;;
2022/03/13 13:45:35;;;;;;;6.7;2.1;;;;;;;30.67;10.27637;934.009;;;;
2022/03/13 13:48:00;;;;;;;2.2;2;;;;;;;31.66;9.939453;933.9717;;;;
2022/03/13 13:50:26;;;;;;;2.9;2.1;;;;;;;29.74;9.920898;933.9805;;;;
2022/03/13 13:52:50;;;;;;;2.3;2;;;;;;;31.22;9.426758;933.9619;;;;
2022/03/13 13:55:16;;;;;;;3.1;1.9;;;;;;;30.7;10.56348;933.9203;;;;
2022/03/13 13:57:40;;;;;;;2.8;2.1;;;;;;;30.81;9.454102;933.9039;;;;
2022/03/13 14:00:05;;;;;;;4.6;2.1;;;;;;;28.62;10.21777;933.9839;;;;
2022/03/13 14:02:30;;;;;;;2.6;2.1;;;;;;;25.85;11.84473;933.9928;;;;
2022/03/13 14:04:56;;;;;;;2.2;1.8;;;;;;;27.08;11.2373;933.9817;;;;
2022/03/13 14:07:21;;;;;;;2.9;2.3;;;;;;;27.87;11.12695;934.0403;;;;
2022/03/13 14:09:46;;;;;;;2.6;2.3;;;;;;;29.95;10.91602;934.0086;;;;
2022/03/13 14:12:12;;;;;;;4.2;2.1;;;;;;;30.81;9.980469;934.0417;;;;
2022/03/13 14:14:36;;;;;;;1.9;1.8;;;;;;;29.63;9.692383;934.0069;;;;
2022/03/13 14:17:01;;;;;;;2.4;2.2;;;;;;;28.75;10.07813;934.0611;;;;
2022/03/13 14:19:26;;;;;;;2.6;1.9;;;;;;;30.19;9.930664;934.0377;;;;